createdAt,value
2023-01-29T00:02:24.252Z,6.85
2023-01-29T00:05:28.520Z,7.68
2023-01-29T00:08:33.948Z,8.43
2023-01-29T00:11:36.795Z,9.05
2023-01-29T00:14:39.337Z,7.47
2023-01-29T00:17:42.109Z,7.85
2023-01-29T00:20:45.176Z,5.40
2023-01-29T00:23:48.677Z,5.35
2023-01-29T00:26:51.298Z,7.12
2023-01-29T00:30:12.062Z,6.23
2023-01-29T00:33:14.945Z,5.72
2023-01-29T00:36:18.890Z,7.62
2023-01-29T00:39:31.455Z,4.93
2023-01-29T00:42:58.115Z,4.05
2023-01-29T00:46:00.665Z,5.83
2023-01-29T00:49:05.216Z,5.35
2023-01-29T00:52:26.288Z,7.28
2023-01-29T00:55:29.148Z,5.15
2023-01-29T00:58:36.622Z,5.32
2023-01-29T01:01:57.917Z,5.70
2023-01-29T01:05:03.199Z,5.93
2023-01-29T01:08:26.183Z,4.30
2023-01-29T01:11:28.815Z,4.65
2023-01-29T01:14:31.604Z,4.90
2023-01-29T01:17:34.392Z,3.97
2023-01-29T01:20:37.400Z,5.05
2023-01-29T01:23:40.129Z,5.03
2023-01-29T01:26:43.061Z,3.25
2023-01-29T01:29:46.851Z,4.57
2023-01-29T01:32:50.311Z,4.40
2023-01-29T01:35:53.106Z,5.00
2023-01-29T01:38:56.855Z,4.28
2023-01-29T01:41:59.380Z,3.50
2023-01-29T01:45:08.073Z,2.85
2023-01-29T01:48:18.751Z,4.83
2023-01-29T01:51:23.043Z,4.22
2023-01-29T01:54:28.194Z,5.35
2023-01-29T01:57:31.426Z,4.75
2023-01-29T02:00:34.331Z,5.45
2023-01-29T02:04:00.095Z,6.33
2023-01-29T02:07:23.358Z,5.70
2023-01-29T02:10:27.924Z,5.70
2023-01-29T02:13:31.358Z,3.83
2023-01-29T02:16:35.401Z,4.95
2023-01-29T02:19:48.612Z,3.23
2023-01-29T02:22:59.272Z,2.92
2023-01-29T02:26:20.819Z,3.85
2023-01-29T02:29:34.651Z,5.25
2023-01-29T02:32:54.767Z,5.12
2023-01-29T02:36:19.368Z,5.00
2023-01-29T02:39:45.270Z,5.35
2023-01-29T02:43:11.032Z,3.90
2023-01-29T02:46:34.917Z,2.45
2023-01-29T02:49:50.290Z,3.90
2023-01-29T02:53:15.369Z,2.17
2023-01-29T02:56:22.932Z,3.12
2023-01-29T02:59:32.699Z,3.53
2023-01-29T03:02:41.635Z,3.95
2023-01-29T03:06:06.534Z,3.20
2023-01-29T03:09:18.031Z,5.00
2023-01-29T03:12:34.066Z,2.40
2023-01-29T03:15:42.495Z,2.72
2023-01-29T03:18:51.068Z,4.00
2023-01-29T03:21:59.957Z,3.60
2023-01-29T03:25:23.537Z,3.27
2023-01-29T03:28:47.014Z,4.10
2023-01-29T03:32:06.760Z,3.28
2023-01-29T03:35:11.113Z,3.40
2023-01-29T03:38:14.741Z,3.37
2023-01-29T03:41:25.698Z,3.27
2023-01-29T03:44:58.067Z,5.62
2023-01-29T03:48:05.856Z,4.68
2023-01-29T03:51:17.764Z,2.90
2023-01-29T03:54:28.375Z,4.37
2023-01-29T03:57:42.885Z,4.47
2023-01-29T04:00:57.816Z,2.85
2023-01-29T04:04:27.171Z,3.20
2023-01-29T04:07:33.524Z,6.20
2023-01-29T04:10:39.261Z,6.00
2023-01-29T04:13:42.636Z,7.13
2023-01-29T04:16:50.317Z,6.03
2023-01-29T04:19:54.031Z,4.25
2023-01-29T04:22:56.944Z,6.07
2023-01-29T04:26:29.247Z,5.23
2023-01-29T04:29:43.530Z,6.10
2023-01-29T04:33:05.233Z,5.95
2023-01-29T04:36:20.449Z,5.95
2023-01-29T04:39:33.117Z,6.95
2023-01-29T04:43:22.508Z,7.33
2023-01-29T04:47:05.194Z,5.80
2023-01-29T04:50:24.517Z,7.20
2023-01-29T04:53:37.334Z,9.10
2023-01-29T04:56:54.729Z,8.52
2023-01-29T05:00:04.049Z,6.83
2023-01-29T05:03:09.743Z,8.07
2023-01-29T05:06:12.574Z,8.60
2023-01-29T05:09:16.623Z,7.22
2023-01-29T05:12:19.654Z,6.50
2023-01-29T05:15:26.834Z,7.63
2023-01-29T05:18:30.151Z,5.57
2023-01-29T05:21:33.112Z,6.75
2023-01-29T05:24:37.295Z,4.07
2023-01-29T05:27:58.689Z,4.90
2023-01-29T05:31:01.458Z,3.37
2023-01-29T05:34:04.357Z,5.63
2023-01-29T05:37:07.214Z,5.45
2023-01-29T05:40:10.750Z,4.62
2023-01-29T05:43:24.168Z,3.05
2023-01-29T05:46:27.054Z,2.97
2023-01-29T05:49:29.822Z,4.97
2023-01-29T05:52:32.698Z,4.93
2023-01-29T05:55:35.263Z,6.35
2023-01-29T05:58:39.990Z,3.22
2023-01-29T06:01:42.869Z,2.40
2023-01-29T06:04:45.756Z,3.37
2023-01-29T06:07:48.323Z,4.18
2023-01-29T06:10:51.171Z,3.10
2023-01-29T06:13:53.880Z,3.45
2023-01-29T06:16:56.689Z,6.00
2023-01-29T06:19:59.358Z,4.17
2023-01-29T06:23:02.267Z,3.00
2023-01-29T06:26:07.315Z,4.70
2023-01-29T06:29:10.295Z,3.85
2023-01-29T06:32:13.098Z,3.83
2023-01-29T06:35:18.083Z,3.87
2023-01-29T06:38:20.754Z,2.67
2023-01-29T06:41:25.761Z,2.28
2023-01-29T06:44:28.541Z,2.37
2023-01-29T06:47:31.478Z,2.57
2023-01-29T06:50:34.119Z,2.80
2023-01-29T06:53:38.397Z,3.30
2023-01-29T06:56:40.972Z,4.60
2023-01-29T06:59:43.791Z,2.83
2023-01-29T07:02:49.636Z,3.90
2023-01-29T07:05:53.049Z,3.43
2023-01-29T07:08:56.120Z,2.55
2023-01-29T07:11:58.994Z,3.15
2023-01-29T07:15:01.508Z,5.43
2023-01-29T07:18:12.042Z,2.33
2023-01-29T07:21:14.995Z,2.87
2023-01-29T07:24:17.866Z,2.17
2023-01-29T07:27:20.450Z,4.43
2023-01-29T07:30:23.331Z,1.95
2023-01-29T07:33:26.228Z,4.43
2023-01-29T07:36:29.863Z,3.53
2023-01-29T07:39:33.023Z,3.15
2023-01-29T07:42:36.373Z,2.20
2023-01-29T07:45:40.001Z,2.25
2023-01-29T07:48:42.970Z,2.50
2023-01-29T07:51:45.518Z,2.63
2023-01-29T07:54:48.592Z,5.35
2023-01-29T07:58:02.975Z,2.75
2023-01-29T08:01:10.329Z,6.53
2023-01-29T08:04:13.227Z,4.37
2023-01-29T08:07:15.827Z,4.37
2023-01-29T08:10:19.410Z,4.37
2023-01-29T08:13:22.281Z,2.37
2023-01-29T08:16:25.124Z,3.35
2023-01-29T08:19:27.824Z,4.47
2023-01-29T08:22:30.682Z,4.47
2023-01-29T08:25:34.146Z,4.12
2023-01-29T08:28:38.852Z,2.55
2023-01-29T08:31:41.515Z,4.12
2023-01-29T08:34:44.843Z,3.33
2023-01-29T08:37:59.501Z,2.63
2023-01-29T08:41:02.699Z,3.28
2023-01-29T08:44:05.538Z,4.18
2023-01-29T08:47:08.434Z,4.20
2023-01-29T08:50:11.659Z,3.60
2023-01-29T08:53:15.074Z,4.47
2023-01-29T08:56:17.703Z,4.18
2023-01-29T08:59:22.913Z,4.43
2023-01-29T09:02:25.646Z,2.60
2023-01-29T09:05:28.940Z,3.63
2023-01-29T09:08:31.514Z,2.80
2023-01-29T09:11:34.363Z,5.05
2023-01-29T09:14:37.104Z,3.17
2023-01-29T09:17:41.072Z,3.25
2023-01-29T09:20:43.645Z,5.27
2023-01-29T09:23:46.573Z,3.47
2023-01-29T09:26:49.843Z,3.08
2023-01-29T09:29:52.760Z,3.35
2023-01-29T09:32:55.473Z,3.20
2023-01-29T09:35:58.489Z,2.43
2023-01-29T09:39:01.086Z,3.20
2023-01-29T09:42:12.580Z,2.55
2023-01-29T09:45:21.344Z,5.00
2023-01-29T09:48:28.905Z,3.30
2023-01-29T09:51:35.724Z,2.30
2023-01-29T09:54:53.820Z,3.50
2023-01-29T10:01:09.062Z,4.43
2023-01-29T10:04:45.152Z,4.10
2023-01-29T10:08:06.532Z,3.77
2023-01-29T10:11:17.472Z,2.90
2023-01-29T10:14:55.544Z,5.75
2023-01-29T10:18:17.047Z,4.75
2023-01-29T10:21:31.568Z,4.07
2023-01-29T10:24:39.347Z,3.97
2023-01-29T10:27:48.170Z,2.30
2023-01-29T10:30:58.656Z,5.53
2023-01-29T10:34:04.880Z,4.28
2023-01-29T10:37:24.426Z,4.47
2023-01-29T10:40:33.144Z,6.90
2023-01-29T10:44:06.844Z,4.37
2023-01-29T10:47:24.676Z,4.32
2023-01-29T10:50:39.589Z,3.80
2023-01-29T10:54:21.286Z,5.47
2023-01-29T10:57:56.654Z,5.53
2023-01-29T11:01:00.648Z,5.93
2023-01-29T11:04:04.915Z,6.15
2023-01-29T11:07:08.119Z,5.07
2023-01-29T11:10:15.087Z,3.20
2023-01-29T11:13:18.311Z,6.93
2023-01-29T11:16:21.387Z,7.07
2023-01-29T11:19:38.314Z,4.65
2023-01-29T11:22:54.060Z,6.07
2023-01-29T11:25:58.043Z,4.20
2023-01-29T11:29:00.894Z,7.27
2023-01-29T11:32:05.926Z,4.00
2023-01-29T11:35:14.764Z,6.47
2023-01-29T11:38:28.485Z,6.53
2023-01-29T11:41:42.978Z,4.00
2023-01-29T11:44:45.572Z,4.10
2023-01-29T11:47:54.268Z,6.30
2023-01-29T11:51:00.808Z,4.68
2023-01-29T11:54:04.725Z,5.57
2023-01-29T11:57:20.170Z,4.57
2023-01-29T12:00:25.413Z,5.43
2023-01-29T12:03:39.687Z,6.40
2023-01-29T12:06:42.900Z,4.68
2023-01-29T12:09:54.823Z,5.32
2023-01-29T12:13:09.838Z,3.15
2023-01-29T12:16:29.706Z,5.40
2023-01-29T12:19:50.124Z,6.13
2023-01-29T12:23:08.830Z,4.43
2023-01-29T12:26:16.192Z,6.40
2023-01-29T12:29:38.077Z,2.67
2023-01-29T12:32:49.948Z,6.47
2023-01-29T12:36:09.251Z,6.17
2023-01-29T12:39:16.760Z,3.45
2023-01-29T12:42:22.724Z,6.68
2023-01-29T12:45:26.631Z,4.87
2023-01-29T12:48:39.103Z,5.17
2023-01-29T12:51:49.088Z,4.43
2023-01-29T12:55:01.843Z,4.72
2023-01-29T12:58:09.959Z,7.82
2023-01-29T13:01:16.895Z,9.60
2023-01-29T13:04:40.517Z,6.70
2023-01-29T13:07:47.916Z,7.53
2023-01-29T13:10:53.183Z,5.72
2023-01-29T13:14:23.259Z,6.55
2023-01-29T13:17:43.342Z,5.78
2023-01-29T13:20:48.418Z,6.67
2023-01-29T13:24:00.598Z,5.10
2023-01-29T13:27:04.045Z,7.28
2023-01-29T13:30:08.014Z,4.70
2023-01-29T13:33:23.687Z,5.53
2023-01-29T13:36:29.192Z,6.80
2023-01-29T13:39:37.487Z,4.90
2023-01-29T13:42:43.820Z,3.87
2023-01-29T13:45:48.076Z,4.65
2023-01-29T13:48:52.401Z,4.07
2023-01-29T13:51:55.549Z,4.90
2023-01-29T13:55:04.916Z,5.07
2023-01-29T13:58:14.173Z,5.55
2023-01-29T14:01:21.170Z,2.75
2023-01-29T14:04:26.880Z,3.25
2023-01-29T14:07:49.974Z,4.13
2023-01-29T14:11:17.931Z,5.67
2023-01-29T14:14:48.693Z,4.95
2023-01-29T14:17:55.711Z,7.22
2023-01-29T14:21:17.850Z,4.40
2023-01-29T14:24:22.535Z,5.30
2023-01-29T14:27:25.865Z,6.97
2023-01-29T14:30:33.071Z,6.57
2023-01-29T14:33:38.537Z,4.47
2023-01-29T14:36:42.481Z,4.40
2023-01-29T14:39:50.225Z,6.00
2023-01-29T14:43:05.286Z,5.57
2023-01-29T14:46:42.345Z,7.80
2023-01-29T14:49:56.643Z,6.35
2023-01-29T14:53:23.193Z,6.07
2023-01-29T14:56:37.472Z,2.80
2023-01-29T15:00:01.025Z,8.03
2023-01-29T15:03:17.269Z,7.50
2023-01-29T15:06:44.848Z,4.12
2023-01-29T15:10:22.007Z,6.62
2023-01-29T15:13:33.111Z,5.10
2023-01-29T15:16:45.213Z,7.83
2023-01-29T15:19:48.972Z,7.80
2023-01-29T15:22:51.955Z,8.40
2023-01-29T15:25:57.625Z,7.10
2023-01-29T15:29:04.590Z,7.20
2023-01-29T15:32:08.237Z,4.00
2023-01-29T15:35:34.258Z,8.32
2023-01-29T15:38:36.875Z,9.05
2023-01-29T15:41:39.912Z,5.12
2023-01-29T15:44:46.537Z,6.37
2023-01-29T15:47:49.936Z,4.37
2023-01-29T15:50:54.439Z,4.05
2023-01-29T15:53:59.200Z,5.22
2023-01-29T15:57:02.821Z,5.07
2023-01-29T16:00:08.151Z,4.50
2023-01-29T16:03:15.517Z,4.90
2023-01-29T16:06:18.978Z,2.65
2023-01-29T16:09:23.961Z,3.12
2023-01-29T16:12:28.731Z,3.30
2023-01-29T16:15:33.073Z,5.73
2023-01-29T16:18:47.746Z,5.03
2023-01-29T16:22:00.193Z,5.15
2023-01-29T16:25:11.354Z,3.22
2023-01-29T16:28:14.574Z,3.80
2023-01-29T16:31:26.253Z,4.67
2023-01-29T16:34:40.353Z,4.60
2023-01-29T16:37:48.113Z,2.28
2023-01-29T16:41:05.127Z,4.15
2023-01-29T16:44:17.279Z,9.73
2023-01-29T16:47:38.906Z,8.53
2023-01-29T16:50:54.227Z,4.57
2023-01-29T16:54:11.882Z,3.12
2023-01-29T16:57:18.365Z,2.53
2023-01-29T17:00:23.097Z,4.05
2023-01-29T17:03:27.452Z,5.20
2023-01-29T17:06:31.981Z,5.37
2023-01-29T17:09:37.507Z,8.10
2023-01-29T17:12:40.574Z,6.85
2023-01-29T17:15:43.779Z,7.80
2023-01-29T17:18:47.743Z,6.40
2023-01-29T17:21:51.332Z,3.50
2023-01-29T17:24:54.380Z,8.07
2023-01-29T17:28:00.736Z,4.72
2023-01-29T17:31:06.505Z,3.30
2023-01-29T17:34:14.771Z,7.67
2023-01-29T17:37:17.809Z,12.63
2023-01-29T17:40:37.788Z,16.37
2023-01-29T17:43:40.663Z,14.90
2023-01-29T17:46:43.839Z,16.12
2023-01-29T17:49:46.986Z,14.97
2023-01-29T17:52:50.789Z,12.93
2023-01-29T17:55:53.653Z,12.55
2023-01-29T17:58:56.800Z,13.50
2023-01-29T18:01:59.891Z,14.13
2023-01-29T18:05:03.035Z,11.90
2023-01-29T18:08:19.900Z,18.63
2023-01-29T18:11:23.591Z,19.02
2023-01-29T18:14:26.388Z,10.20
2023-01-29T18:17:29.521Z,7.70
2023-01-29T18:20:36.741Z,12.27
2023-01-29T18:23:40.532Z,14.07
2023-01-29T18:26:43.595Z,14.30
2023-01-29T18:29:46.706Z,18.90
2023-01-29T18:32:50.323Z,23.40
2023-01-29T18:35:55.192Z,22.93
2023-01-29T18:38:58.266Z,19.30
2023-01-29T18:42:01.453Z,18.77
2023-01-29T18:45:04.617Z,13.40
2023-01-29T18:48:08.428Z,11.60
2023-01-29T18:51:11.692Z,10.83
2023-01-29T18:54:14.817Z,26.73
2023-01-29T18:58:26.869Z,16.60
2023-01-29T19:00:40.916Z,14.98
2023-01-29T19:03:43.735Z,15.43
2023-01-29T19:06:46.538Z,13.83
2023-01-29T19:09:50.643Z,17.10
2023-01-29T19:12:53.746Z,13.55
2023-01-29T19:15:56.795Z,10.73
2023-01-29T19:19:00.191Z,10.68
2023-01-29T19:22:04.446Z,10.37
2023-01-29T19:25:08.254Z,9.77
2023-01-29T19:28:11.466Z,15.80
2023-01-29T19:31:14.744Z,32.42
2023-01-29T19:34:17.976Z,18.10
2023-01-29T19:37:21.373Z,17.00
2023-01-29T19:40:24.392Z,25.70
2023-01-29T19:43:33.413Z,18.60
2023-01-29T19:46:36.600Z,15.27
2023-01-29T19:49:40.691Z,18.98
2023-01-29T19:52:52.027Z,21.27
2023-01-29T19:56:09.824Z,16.00
2023-01-29T19:59:13.220Z,15.02
2023-01-29T20:02:16.519Z,18.62
2023-01-29T20:05:20.587Z,12.48
2023-01-29T20:08:24.061Z,13.13
2023-01-29T20:11:27.128Z,12.83
2023-01-29T20:14:29.852Z,14.25
2023-01-29T20:17:33.035Z,15.77
2023-01-29T20:20:39.706Z,16.23
2023-01-29T20:23:45.668Z,15.27
2023-01-29T20:26:49.301Z,12.90
2023-01-29T20:29:52.887Z,14.05
2023-01-29T20:32:55.668Z,25.12
2023-01-29T20:36:01.151Z,23.08
2023-01-29T20:39:04.452Z,22.00
2023-01-29T20:42:07.538Z,17.77
2023-01-29T20:45:10.505Z,16.05
2023-01-29T20:48:13.935Z,15.70
2023-01-29T20:51:17.795Z,16.27
2023-01-29T20:54:21.007Z,13.37
2023-01-29T20:57:23.937Z,11.60
2023-01-29T21:00:26.928Z,11.10
2023-01-29T21:03:29.928Z,9.40
2023-01-29T21:06:32.961Z,10.07
2023-01-29T21:09:35.978Z,8.63
2023-01-29T21:12:39.085Z,9.48
2023-01-29T21:15:43.001Z,9.20
2023-01-29T21:18:46.008Z,9.60
2023-01-29T21:21:49.062Z,10.32
2023-01-29T21:24:52.299Z,9.43
2023-01-29T21:27:54.943Z,8.70
2023-01-29T21:31:09.502Z,11.25
2023-01-29T21:34:12.380Z,13.75
2023-01-29T21:37:15.230Z,12.15
2023-01-29T21:40:18.356Z,11.13
2023-01-29T21:43:21.372Z,7.33
2023-01-29T21:46:23.989Z,8.90
2023-01-29T21:49:27.879Z,9.02
2023-01-29T21:52:30.513Z,7.93
2023-01-29T21:55:34.016Z,7.70
2023-01-29T21:58:37.148Z,9.75
2023-01-29T22:01:40.143Z,6.90
2023-01-29T22:04:43.154Z,8.63
2023-01-29T22:07:45.783Z,8.48
2023-01-29T22:10:49.027Z,10.27
2023-01-29T22:13:51.731Z,9.67
2023-01-29T22:16:54.744Z,10.10
2023-01-29T22:19:57.307Z,8.77
2023-01-29T22:23:00.735Z,9.00
2023-01-29T22:26:05.214Z,7.90
2023-01-29T22:29:08.148Z,7.93
2023-01-29T22:32:11.664Z,8.10
2023-01-29T22:35:14.606Z,7.25
2023-01-29T22:38:17.297Z,6.70
2023-01-29T22:41:20.087Z,7.17
2023-01-29T22:44:22.917Z,7.20
2023-01-29T22:47:25.858Z,6.40
2023-01-29T22:50:28.452Z,8.43
2023-01-29T22:53:31.647Z,6.53
2023-01-29T22:56:34.274Z,6.30
2023-01-29T22:59:37.527Z,7.37
2023-01-29T23:02:40.193Z,7.65
2023-01-29T23:05:43.853Z,7.37
2023-01-29T23:08:46.432Z,7.55
2023-01-29T23:11:49.358Z,7.27
2023-01-29T23:14:51.946Z,8.57
2023-01-29T23:17:54.788Z,8.43
2023-01-29T23:20:58.003Z,8.95
2023-01-29T23:24:01.407Z,8.75
2023-01-29T23:27:16.533Z,8.47
2023-01-29T23:30:19.708Z,8.68
2023-01-29T23:33:22.609Z,7.62
2023-01-29T23:36:25.469Z,6.80
2023-01-29T23:39:28.000Z,8.50
2023-01-29T23:42:30.801Z,8.37
2023-01-29T23:45:33.546Z,7.85
2023-01-29T23:48:36.657Z,7.85
2023-01-29T23:51:39.350Z,8.98
2023-01-29T23:54:42.309Z,7.62
2023-01-29T23:57:44.939Z,8.73
